sensor_id;sensor_type;location;lat;lon;timestamp;P1;durP1;ratioP1;P2;durP2;ratioP2
43803;SDS011;29430;52.924;-2.388;2023-07-20T00:00:08;2.00;;;0.85;;
43803;SDS011;29430;52.924;-2.388;2023-07-20T00:05:00;3.05;;;1.17;;
43803;SDS011;29430;52.924;-2.388;2023-07-20T00:09:52;2.60;;;1.08;;
43803;SDS011;29430;52.924;-2.388;2023-07-20T00:14:43;3.10;;;1.00;;
43803;SDS011;29430;52.924;-2.388;2023-07-20T00:19:35;1.70;;;0.82;;
43803;SDS011;29430;52.924;-2.388;2023-07-20T00:24:27;2.45;;;0.90;;
43803;SDS011;29430;52.924;-2.388;2023-07-20T00:29:18;5.30;;;1.00;;
43803;SDS011;29430;52.924;-2.388;2023-07-20T00:34:10;2.38;;;0.90;;
43803;SDS011;29430;52.924;-2.388;2023-07-20T00:39:02;2.08;;;0.80;;
43803;SDS011;29430;52.924;-2.388;2023-07-20T00:43:54;3.10;;;0.85;;
43803;SDS011;29430;52.924;-2.388;2023-07-20T00:48:47;4.88;;;0.82;;
43803;SDS011;29430;52.924;-2.388;2023-07-20T00:53:39;1.92;;;0.90;;
43803;SDS011;29430;52.924;-2.388;2023-07-20T00:58:30;2.63;;;1.40;;
43803;SDS011;29430;52.924;-2.388;2023-07-20T01:03:22;1.50;;;0.60;;
43803;SDS011;29430;52.924;-2.388;2023-07-20T01:08:16;1.90;;;0.85;;
43803;SDS011;29430;52.924;-2.388;2023-07-20T01:13:13;6.57;;;1.02;;
43803;SDS011;29430;52.924;-2.388;2023-07-20T01:18:05;2.03;;;0.80;;
43803;SDS011;29430;52.924;-2.388;2023-07-20T01:28:12;2.55;;;0.75;;
43803;SDS011;29430;52.924;-2.388;2023-07-20T01:33:26;2.85;;;0.60;;
43803;SDS011;29430;52.924;-2.388;2023-07-20T01:38:20;3.03;;;1.10;;
43803;SDS011;29430;52.924;-2.388;2023-07-20T01:43:13;1.90;;;0.70;;
43803;SDS011;29430;52.924;-2.388;2023-07-20T01:48:05;3.63;;;0.88;;
43803;SDS011;29430;52.924;-2.388;2023-07-20T01:52:57;2.25;;;0.82;;
43803;SDS011;29430;52.924;-2.388;2023-07-20T01:57:49;2.65;;;0.80;;
43803;SDS011;29430;52.924;-2.388;2023-07-20T02:07:36;3.00;;;0.90;;
43803;SDS011;29430;52.924;-2.388;2023-07-20T02:12:28;2.75;;;1.02;;
43803;SDS011;29430;52.924;-2.388;2023-07-20T02:17:19;3.33;;;1.27;;
43803;SDS011;29430;52.924;-2.388;2023-07-20T02:22:11;2.72;;;1.30;;
43803;SDS011;29430;52.924;-2.388;2023-07-20T02:27:03;3.78;;;1.25;;
43803;SDS011;29430;52.924;-2.388;2023-07-20T02:31:55;3.25;;;1.10;;
43803;SDS011;29430;52.924;-2.388;2023-07-20T02:36:47;4.30;;;1.27;;
43803;SDS011;29430;52.924;-2.388;2023-07-20T02:41:39;3.15;;;1.20;;
43803;SDS011;29430;52.924;-2.388;2023-07-20T02:46:31;2.45;;;1.40;;
43803;SDS011;29430;52.924;-2.388;2023-07-20T02:51:25;2.55;;;0.90;;
43803;SDS011;29430;52.924;-2.388;2023-07-20T02:56:17;2.22;;;0.82;;
43803;SDS011;29430;52.924;-2.388;2023-07-20T03:01:09;2.67;;;1.02;;
43803;SDS011;29430;52.924;-2.388;2023-07-20T03:06:02;2.55;;;1.17;;
43803;SDS011;29430;52.924;-2.388;2023-07-20T03:10:54;2.25;;;1.10;;
43803;SDS011;29430;52.924;-2.388;2023-07-20T03:15:45;3.38;;;1.00;;
43803;SDS011;29430;52.924;-2.388;2023-07-20T03:20:37;2.15;;;0.80;;
43803;SDS011;29430;52.924;-2.388;2023-07-20T03:25:29;2.83;;;0.82;;
43803;SDS011;29430;52.924;-2.388;2023-07-20T03:30:21;2.67;;;0.75;;
43803;SDS011;29430;52.924;-2.388;2023-07-20T03:35:14;5.65;;;0.98;;
43803;SDS011;29430;52.924;-2.388;2023-07-20T03:40:07;3.45;;;0.80;;
43803;SDS011;29430;52.924;-2.388;2023-07-20T03:44:59;2.33;;;0.90;;
43803;SDS011;29430;52.924;-2.388;2023-07-20T03:49:51;1.95;;;0.80;;
43803;SDS011;29430;52.924;-2.388;2023-07-20T03:54:42;3.80;;;0.88;;
43803;SDS011;29430;52.924;-2.388;2023-07-20T03:59:36;3.72;;;1.27;;
43803;SDS011;29430;52.924;-2.388;2023-07-20T04:04:29;2.20;;;0.85;;
43803;SDS011;29430;52.924;-2.388;2023-07-20T04:09:21;4.68;;;0.80;;
43803;SDS011;29430;52.924;-2.388;2023-07-20T04:14:12;2.15;;;0.90;;
43803;SDS011;29430;52.924;-2.388;2023-07-20T04:19:04;2.15;;;0.90;;
43803;SDS011;29430;52.924;-2.388;2023-07-20T04:23:56;3.47;;;1.10;;
43803;SDS011;29430;52.924;-2.388;2023-07-20T04:28:47;2.65;;;0.90;;
43803;SDS011;29430;52.924;-2.388;2023-07-20T04:33:44;4.32;;;0.88;;
43803;SDS011;29430;52.924;-2.388;2023-07-20T04:38:36;2.88;;;0.90;;
43803;SDS011;29430;52.924;-2.388;2023-07-20T04:43:28;2.17;;;0.90;;
43803;SDS011;29430;52.924;-2.388;2023-07-20T04:48:20;2.20;;;0.93;;
43803;SDS011;29430;52.924;-2.388;2023-07-20T04:53:12;2.50;;;0.93;;
43803;SDS011;29430;52.924;-2.388;2023-07-20T04:58:04;2.55;;;1.20;;
43803;SDS011;29430;52.924;-2.388;2023-07-20T05:02:57;3.80;;;1.05;;
43803;SDS011;29430;52.924;-2.388;2023-07-20T05:07:49;1.75;;;0.80;;
43803;SDS011;29430;52.924;-2.388;2023-07-20T05:12:40;1.70;;;1.02;;
43803;SDS011;29430;52.924;-2.388;2023-07-20T05:17:32;2.20;;;1.00;;
43803;SDS011;29430;52.924;-2.388;2023-07-20T05:22:24;2.25;;;1.10;;
43803;SDS011;29430;52.924;-2.388;2023-07-20T05:27:16;2.50;;;1.00;;
43803;SDS011;29430;52.924;-2.388;2023-07-20T05:32:08;2.13;;;0.88;;
43803;SDS011;29430;52.924;-2.388;2023-07-20T05:37:01;1.75;;;0.82;;
43803;SDS011;29430;52.924;-2.388;2023-07-20T05:41:52;4.05;;;1.23;;
43803;SDS011;29430;52.924;-2.388;2023-07-20T05:46:44;2.40;;;0.98;;
43803;SDS011;29430;52.924;-2.388;2023-07-20T05:51:47;1.95;;;0.82;;
43803;SDS011;29430;52.924;-2.388;2023-07-20T05:56:39;4.38;;;0.98;;
43803;SDS011;29430;52.924;-2.388;2023-07-20T06:01:31;3.30;;;1.02;;
43803;SDS011;29430;52.924;-2.388;2023-07-20T06:06:23;2.42;;;0.90;;
43803;SDS011;29430;52.924;-2.388;2023-07-20T06:11:15;4.85;;;1.05;;
43803;SDS011;29430;52.924;-2.388;2023-07-20T06:16:07;2.20;;;1.15;;
43803;SDS011;29430;52.924;-2.388;2023-07-20T06:20:59;3.88;;;1.10;;
43803;SDS011;29430;52.924;-2.388;2023-07-20T06:25:51;2.95;;;1.00;;
43803;SDS011;29430;52.924;-2.388;2023-07-20T06:30:42;4.05;;;1.00;;
43803;SDS011;29430;52.924;-2.388;2023-07-20T06:35:34;3.00;;;0.95;;
43803;SDS011;29430;52.924;-2.388;2023-07-20T06:40:27;4.07;;;1.20;;
43803;SDS011;29430;52.924;-2.388;2023-07-20T06:45:21;4.45;;;1.17;;
43803;SDS011;29430;52.924;-2.388;2023-07-20T06:50:13;3.63;;;1.05;;
43803;SDS011;29430;52.924;-2.388;2023-07-20T06:55:08;2.50;;;1.02;;
43803;SDS011;29430;52.924;-2.388;2023-07-20T07:00:00;2.60;;;1.00;;
43803;SDS011;29430;52.924;-2.388;2023-07-20T07:04:52;2.20;;;1.20;;
43803;SDS011;29430;52.924;-2.388;2023-07-20T07:09:51;2.50;;;0.95;;
43803;SDS011;29430;52.924;-2.388;2023-07-20T07:14:43;4.78;;;1.50;;
43803;SDS011;29430;52.924;-2.388;2023-07-20T07:19:34;3.55;;;1.92;;
43803;SDS011;29430;52.924;-2.388;2023-07-20T07:24:27;4.20;;;1.80;;
43803;SDS011;29430;52.924;-2.388;2023-07-20T07:29:24;3.55;;;1.13;;
43803;SDS011;29430;52.924;-2.388;2023-07-20T07:34:17;3.97;;;1.58;;
43803;SDS011;29430;52.924;-2.388;2023-07-20T07:39:09;3.97;;;2.00;;
43803;SDS011;29430;52.924;-2.388;2023-07-20T07:44:04;4.57;;;2.03;;
43803;SDS011;29430;52.924;-2.388;2023-07-20T07:48:56;4.70;;;1.90;;
43803;SDS011;29430;52.924;-2.388;2023-07-20T07:53:47;5.20;;;2.22;;
43803;SDS011;29430;52.924;-2.388;2023-07-20T07:58:40;7.90;;;3.90;;
43803;SDS011;29430;52.924;-2.388;2023-07-20T08:03:32;8.88;;;4.22;;
43803;SDS011;29430;52.924;-2.388;2023-07-20T08:08:24;6.72;;;4.15;;
43803;SDS011;29430;52.924;-2.388;2023-07-20T08:13:15;6.07;;;3.97;;
43803;SDS011;29430;52.924;-2.388;2023-07-20T08:18:07;12.55;;;5.70;;
43803;SDS011;29430;52.924;-2.388;2023-07-20T08:22:59;7.18;;;4.65;;
43803;SDS011;29430;52.924;-2.388;2023-07-20T08:27:51;7.03;;;4.20;;
43803;SDS011;29430;52.924;-2.388;2023-07-20T08:32:43;8.75;;;5.32;;
43803;SDS011;29430;52.924;-2.388;2023-07-20T08:37:35;9.32;;;5.55;;
43803;SDS011;29430;52.924;-2.388;2023-07-20T08:42:27;8.05;;;6.00;;
43803;SDS011;29430;52.924;-2.388;2023-07-20T08:47:19;9.95;;;7.35;;
43803;SDS011;29430;52.924;-2.388;2023-07-20T08:52:12;10.85;;;6.32;;
43803;SDS011;29430;52.924;-2.388;2023-07-20T08:57:05;9.27;;;5.63;;
43803;SDS011;29430;52.924;-2.388;2023-07-20T09:01:57;7.30;;;4.68;;
43803;SDS011;29430;52.924;-2.388;2023-07-20T09:06:50;8.90;;;5.53;;
43803;SDS011;29430;52.924;-2.388;2023-07-20T09:11:42;8.85;;;5.38;;
43803;SDS011;29430;52.924;-2.388;2023-07-20T09:16:46;7.55;;;4.43;;
43803;SDS011;29430;52.924;-2.388;2023-07-20T09:21:40;6.78;;;5.40;;
43803;SDS011;29430;52.924;-2.388;2023-07-20T09:26:32;7.10;;;4.72;;
43803;SDS011;29430;52.924;-2.388;2023-07-20T09:31:32;7.05;;;4.65;;
43803;SDS011;29430;52.924;-2.388;2023-07-20T09:36:32;6.78;;;5.15;;
43803;SDS011;29430;52.924;-2.388;2023-07-20T09:41:39;6.95;;;5.22;;
43803;SDS011;29430;52.924;-2.388;2023-07-20T09:46:47;7.00;;;5.00;;
43803;SDS011;29430;52.924;-2.388;2023-07-20T09:51:42;6.50;;;4.45;;
43803;SDS011;29430;52.924;-2.388;2023-07-20T09:56:36;6.82;;;4.85;;
43803;SDS011;29430;52.924;-2.388;2023-07-20T10:01:29;7.57;;;5.07;;
43803;SDS011;29430;52.924;-2.388;2023-07-20T10:06:24;10.52;;;4.78;;
43803;SDS011;29430;52.924;-2.388;2023-07-20T10:11:16;7.43;;;4.85;;
43803;SDS011;29430;52.924;-2.388;2023-07-20T10:16:12;8.45;;;5.13;;
43803;SDS011;29430;52.924;-2.388;2023-07-20T10:21:12;6.43;;;4.60;;
43803;SDS011;29430;52.924;-2.388;2023-07-20T10:26:07;6.18;;;4.38;;
43803;SDS011;29430;52.924;-2.388;2023-07-20T10:31:00;8.65;;;4.35;;
43803;SDS011;29430;52.924;-2.388;2023-07-20T10:35:57;8.43;;;5.03;;
43803;SDS011;29430;52.924;-2.388;2023-07-20T10:40:56;7.20;;;4.90;;
43803;SDS011;29430;52.924;-2.388;2023-07-20T10:45:51;11.20;;;7.05;;
43803;SDS011;29430;52.924;-2.388;2023-07-20T10:50:44;9.67;;;5.30;;
43803;SDS011;29430;52.924;-2.388;2023-07-20T10:55:37;6.30;;;4.45;;
43803;SDS011;29430;52.924;-2.388;2023-07-20T11:00:28;6.35;;;4.88;;
43803;SDS011;29430;52.924;-2.388;2023-07-20T11:05:34;6.40;;;5.18;;
43803;SDS011;29430;52.924;-2.388;2023-07-20T11:10:27;5.90;;;4.75;;
43803;SDS011;29430;52.924;-2.388;2023-07-20T11:15:19;6.88;;;4.60;;
43803;SDS011;29430;52.924;-2.388;2023-07-20T11:20:12;6.15;;;4.45;;
43803;SDS011;29430;52.924;-2.388;2023-07-20T11:25:09;8.45;;;4.65;;
43803;SDS011;29430;52.924;-2.388;2023-07-20T11:30:01;8.35;;;4.95;;
43803;SDS011;29430;52.924;-2.388;2023-07-20T11:34:53;8.05;;;4.85;;
43803;SDS011;29430;52.924;-2.388;2023-07-20T11:39:45;6.85;;;4.95;;
43803;SDS011;29430;52.924;-2.388;2023-07-20T11:44:38;6.22;;;4.80;;
43803;SDS011;29430;52.924;-2.388;2023-07-20T11:49:37;7.78;;;5.22;;
43803;SDS011;29430;52.924;-2.388;2023-07-20T11:54:37;6.00;;;4.63;;
43803;SDS011;29430;52.924;-2.388;2023-07-20T11:59:31;6.53;;;5.43;;
43803;SDS011;29430;52.924;-2.388;2023-07-20T12:04:23;7.10;;;5.15;;
43803;SDS011;29430;52.924;-2.388;2023-07-20T12:09:16;7.80;;;5.38;;
43803;SDS011;29430;52.924;-2.388;2023-07-20T12:14:08;6.50;;;4.93;;
43803;SDS011;29430;52.924;-2.388;2023-07-20T12:19:12;4.82;;;3.72;;
43803;SDS011;29430;52.924;-2.388;2023-07-20T12:24:04;6.47;;;3.33;;
43803;SDS011;29430;52.924;-2.388;2023-07-20T12:28:57;5.05;;;3.40;;
43803;SDS011;29430;52.924;-2.388;2023-07-20T12:33:49;6.10;;;3.95;;
43803;SDS011;29430;52.924;-2.388;2023-07-20T12:38:42;5.53;;;3.00;;
43803;SDS011;29430;52.924;-2.388;2023-07-20T12:43:34;3.88;;;3.47;;
43803;SDS011;29430;52.924;-2.388;2023-07-20T12:48:26;3.92;;;3.17;;
43803;SDS011;29430;52.924;-2.388;2023-07-20T12:53:18;3.60;;;2.67;;
43803;SDS011;29430;52.924;-2.388;2023-07-20T12:58:09;6.10;;;3.15;;
43803;SDS011;29430;52.924;-2.388;2023-07-20T13:03:03;3.42;;;2.75;;
43803;SDS011;29430;52.924;-2.388;2023-07-20T13:07:59;5.57;;;4.55;;
43803;SDS011;29430;52.924;-2.388;2023-07-20T13:12:53;5.70;;;4.15;;
43803;SDS011;29430;52.924;-2.388;2023-07-20T13:17:45;7.43;;;4.40;;
43803;SDS011;29430;52.924;-2.388;2023-07-20T13:22:40;5.25;;;4.30;;
43803;SDS011;29430;52.924;-2.388;2023-07-20T13:27:32;5.90;;;4.45;;
43803;SDS011;29430;52.924;-2.388;2023-07-20T13:32:25;5.50;;;4.53;;
43803;SDS011;29430;52.924;-2.388;2023-07-20T13:37:25;7.70;;;3.75;;
43803;SDS011;29430;52.924;-2.388;2023-07-20T13:42:18;6.68;;;2.97;;
43803;SDS011;29430;52.924;-2.388;2023-07-20T13:47:10;4.55;;;3.50;;
43803;SDS011;29430;52.924;-2.388;2023-07-20T13:52:05;5.50;;;2.58;;
43803;SDS011;29430;52.924;-2.388;2023-07-20T13:57:00;4.43;;;2.97;;
43803;SDS011;29430;52.924;-2.388;2023-07-20T14:01:51;4.70;;;3.50;;
43803;SDS011;29430;52.924;-2.388;2023-07-20T14:07:03;5.32;;;3.05;;
43803;SDS011;29430;52.924;-2.388;2023-07-20T14:11:55;4.07;;;2.35;;
43803;SDS011;29430;52.924;-2.388;2023-07-20T14:16:50;3.13;;;2.03;;
43803;SDS011;29430;52.924;-2.388;2023-07-20T14:21:42;3.28;;;1.90;;
43803;SDS011;29430;52.924;-2.388;2023-07-20T14:26:33;3.42;;;2.03;;
43803;SDS011;29430;52.924;-2.388;2023-07-20T14:31:26;4.45;;;2.20;;
43803;SDS011;29430;52.924;-2.388;2023-07-20T14:36:18;4.28;;;2.50;;
43803;SDS011;29430;52.924;-2.388;2023-07-20T14:41:10;3.95;;;2.33;;
43803;SDS011;29430;52.924;-2.388;2023-07-20T14:46:03;5.05;;;2.40;;
43803;SDS011;29430;52.924;-2.388;2023-07-20T14:50:55;2.83;;;1.95;;
43803;SDS011;29430;52.924;-2.388;2023-07-20T14:55:59;3.80;;;2.38;;
43803;SDS011;29430;52.924;-2.388;2023-07-20T15:00:54;4.63;;;2.10;;
43803;SDS011;29430;52.924;-2.388;2023-07-20T15:05:45;3.67;;;2.20;;
43803;SDS011;29430;52.924;-2.388;2023-07-20T15:10:37;4.90;;;1.98;;
43803;SDS011;29430;52.924;-2.388;2023-07-20T15:15:29;6.82;;;3.30;;
43803;SDS011;29430;52.924;-2.388;2023-07-20T15:20:21;3.90;;;2.38;;
43803;SDS011;29430;52.924;-2.388;2023-07-20T15:25:13;6.72;;;2.65;;
43803;SDS011;29430;52.924;-2.388;2023-07-20T15:30:05;4.20;;;3.25;;
43803;SDS011;29430;52.924;-2.388;2023-07-20T15:34:57;4.05;;;2.47;;
43803;SDS011;29430;52.924;-2.388;2023-07-20T15:39:49;4.93;;;3.67;;
43803;SDS011;29430;52.924;-2.388;2023-07-20T15:44:41;5.50;;;3.85;;
43803;SDS011;29430;52.924;-2.388;2023-07-20T15:49:33;5.55;;;3.72;;
43803;SDS011;29430;52.924;-2.388;2023-07-20T15:54:24;4.72;;;3.20;;
43803;SDS011;29430;52.924;-2.388;2023-07-20T15:59:16;4.88;;;3.65;;
43803;SDS011;29430;52.924;-2.388;2023-07-20T16:04:09;4.85;;;3.20;;
43803;SDS011;29430;52.924;-2.388;2023-07-20T16:09:07;3.88;;;3.10;;
43803;SDS011;29430;52.924;-2.388;2023-07-20T16:14:00;4.38;;;2.35;;
43803;SDS011;29430;52.924;-2.388;2023-07-20T16:18:53;4.28;;;3.03;;
43803;SDS011;29430;52.924;-2.388;2023-07-20T16:23:45;5.43;;;3.65;;
43803;SDS011;29430;52.924;-2.388;2023-07-20T16:28:37;4.97;;;3.78;;
43803;SDS011;29430;52.924;-2.388;2023-07-20T16:33:29;7.05;;;3.67;;
43803;SDS011;29430;52.924;-2.388;2023-07-20T16:38:22;4.25;;;3.00;;
43803;SDS011;29430;52.924;-2.388;2023-07-20T16:43:13;4.47;;;3.63;;
43803;SDS011;29430;52.924;-2.388;2023-07-20T16:48:05;4.47;;;2.90;;
43803;SDS011;29430;52.924;-2.388;2023-07-20T16:52:58;4.10;;;2.78;;
43803;SDS011;29430;52.924;-2.388;2023-07-20T16:57:49;6.78;;;4.90;;
43803;SDS011;29430;52.924;-2.388;2023-07-20T17:02:41;5.93;;;3.58;;
43803;SDS011;29430;52.924;-2.388;2023-07-20T17:07:33;4.55;;;3.03;;
43803;SDS011;29430;52.924;-2.388;2023-07-20T17:12:25;4.85;;;2.90;;
43803;SDS011;29430;52.924;-2.388;2023-07-20T17:17:16;6.68;;;3.92;;
43803;SDS011;29430;52.924;-2.388;2023-07-20T17:22:08;4.57;;;2.85;;
43803;SDS011;29430;52.924;-2.388;2023-07-20T17:27:00;4.38;;;3.38;;
43803;SDS011;29430;52.924;-2.388;2023-07-20T17:31:54;5.60;;;2.90;;
43803;SDS011;29430;52.924;-2.388;2023-07-20T17:36:47;6.72;;;4.75;;
43803;SDS011;29430;52.924;-2.388;2023-07-20T17:41:41;5.45;;;3.85;;
43803;SDS011;29430;52.924;-2.388;2023-07-20T17:46:33;5.72;;;3.65;;
43803;SDS011;29430;52.924;-2.388;2023-07-20T17:51:28;5.55;;;3.80;;
43803;SDS011;29430;52.924;-2.388;2023-07-20T17:56:21;5.03;;;3.75;;
43803;SDS011;29430;52.924;-2.388;2023-07-20T18:01:13;6.18;;;3.72;;
43803;SDS011;29430;52.924;-2.388;2023-07-20T18:06:05;5.60;;;3.38;;
43803;SDS011;29430;52.924;-2.388;2023-07-20T18:11:04;7.15;;;3.80;;
43803;SDS011;29430;52.924;-2.388;2023-07-20T18:15:57;4.82;;;3.38;;
43803;SDS011;29430;52.924;-2.388;2023-07-20T18:20:49;5.00;;;3.42;;
43803;SDS011;29430;52.924;-2.388;2023-07-20T18:25:44;6.15;;;4.38;;
43803;SDS011;29430;52.924;-2.388;2023-07-20T18:30:43;6.27;;;4.30;;
43803;SDS011;29430;52.924;-2.388;2023-07-20T18:35:36;6.07;;;4.05;;
43803;SDS011;29430;52.924;-2.388;2023-07-20T18:40:28;6.32;;;4.68;;
43803;SDS011;29430;52.924;-2.388;2023-07-20T18:45:20;7.65;;;4.10;;
43803;SDS011;29430;52.924;-2.388;2023-07-20T18:50:12;6.07;;;4.03;;
43803;SDS011;29430;52.924;-2.388;2023-07-20T18:55:05;5.20;;;4.05;;
43803;SDS011;29430;52.924;-2.388;2023-07-20T18:59:57;7.05;;;4.45;;
43803;SDS011;29430;52.924;-2.388;2023-07-20T19:04:50;8.10;;;5.03;;
43803;SDS011;29430;52.924;-2.388;2023-07-20T19:09:45;5.80;;;4.22;;
43803;SDS011;29430;52.924;-2.388;2023-07-20T19:14:36;5.53;;;4.25;;
43803;SDS011;29430;52.924;-2.388;2023-07-20T19:19:28;5.90;;;4.35;;
43803;SDS011;29430;52.924;-2.388;2023-07-20T19:24:22;7.75;;;4.32;;
43803;SDS011;29430;52.924;-2.388;2023-07-20T19:29:14;6.38;;;4.85;;
43803;SDS011;29430;52.924;-2.388;2023-07-20T19:34:06;5.88;;;4.38;;
43803;SDS011;29430;52.924;-2.388;2023-07-20T19:38:58;6.05;;;4.00;;
43803;SDS011;29430;52.924;-2.388;2023-07-20T19:43:50;5.25;;;3.70;;
43803;SDS011;29430;52.924;-2.388;2023-07-20T19:48:42;7.15;;;4.38;;
43803;SDS011;29430;52.924;-2.388;2023-07-20T19:53:34;7.22;;;3.83;;
43803;SDS011;29430;52.924;-2.388;2023-07-20T19:58:27;5.85;;;3.80;;
43803;SDS011;29430;52.924;-2.388;2023-07-20T20:03:19;7.05;;;3.75;;
43803;SDS011;29430;52.924;-2.388;2023-07-20T20:08:15;4.70;;;2.80;;
43803;SDS011;29430;52.924;-2.388;2023-07-20T20:13:07;4.03;;;2.88;;
43803;SDS011;29430;52.924;-2.388;2023-07-20T20:17:59;6.10;;;3.38;;
43803;SDS011;29430;52.924;-2.388;2023-07-20T20:22:51;7.90;;;3.75;;
43803;SDS011;29430;52.924;-2.388;2023-07-20T20:27:43;4.72;;;3.35;;
43803;SDS011;29430;52.924;-2.388;2023-07-20T20:32:34;5.60;;;3.03;;
43803;SDS011;29430;52.924;-2.388;2023-07-20T20:37:31;5.07;;;3.20;;
43803;SDS011;29430;52.924;-2.388;2023-07-20T20:42:23;5.72;;;3.78;;
43803;SDS011;29430;52.924;-2.388;2023-07-20T20:47:14;6.78;;;3.90;;
43803;SDS011;29430;52.924;-2.388;2023-07-20T20:52:06;6.55;;;3.83;;
43803;SDS011;29430;52.924;-2.388;2023-07-20T20:56:58;7.32;;;4.57;;
43803;SDS011;29430;52.924;-2.388;2023-07-20T21:01:52;7.15;;;4.22;;
43803;SDS011;29430;52.924;-2.388;2023-07-20T21:06:44;7.78;;;5.10;;
43803;SDS011;29430;52.924;-2.388;2023-07-20T21:11:35;8.38;;;4.50;;
43803;SDS011;29430;52.924;-2.388;2023-07-20T21:16:27;5.35;;;4.10;;
43803;SDS011;29430;52.924;-2.388;2023-07-20T21:21:19;6.10;;;4.50;;
43803;SDS011;29430;52.924;-2.388;2023-07-20T21:26:11;5.97;;;3.95;;
43803;SDS011;29430;52.924;-2.388;2023-07-20T21:31:06;6.07;;;4.18;;
43803;SDS011;29430;52.924;-2.388;2023-07-20T21:35:59;5.82;;;3.90;;
43803;SDS011;29430;52.924;-2.388;2023-07-20T21:40:52;6.07;;;3.38;;
43803;SDS011;29430;52.924;-2.388;2023-07-20T21:45:44;6.65;;;4.63;;
43803;SDS011;29430;52.924;-2.388;2023-07-20T21:50:36;7.13;;;3.72;;
43803;SDS011;29430;52.924;-2.388;2023-07-20T21:55:28;5.57;;;3.70;;
43803;SDS011;29430;52.924;-2.388;2023-07-20T22:00:20;5.85;;;3.47;;
43803;SDS011;29430;52.924;-2.388;2023-07-20T22:05:15;5.03;;;3.00;;
43803;SDS011;29430;52.924;-2.388;2023-07-20T22:10:07;5.82;;;4.35;;
43803;SDS011;29430;52.924;-2.388;2023-07-20T22:14:59;6.43;;;4.10;;
43803;SDS011;29430;52.924;-2.388;2023-07-20T22:19:50;7.95;;;4.30;;
43803;SDS011;29430;52.924;-2.388;2023-07-20T22:24:42;6.72;;;3.83;;
43803;SDS011;29430;52.924;-2.388;2023-07-20T22:29:34;7.32;;;3.78;;
43803;SDS011;29430;52.924;-2.388;2023-07-20T22:34:27;7.15;;;4.45;;
43803;SDS011;29430;52.924;-2.388;2023-07-20T22:39:21;5.47;;;3.28;;
43803;SDS011;29430;52.924;-2.388;2023-07-20T22:44:13;5.30;;;3.60;;
43803;SDS011;29430;52.924;-2.388;2023-07-20T22:49:07;8.18;;;3.55;;
43803;SDS011;29430;52.924;-2.388;2023-07-20T22:53:58;7.05;;;4.85;;
43803;SDS011;29430;52.924;-2.388;2023-07-20T22:58:51;6.85;;;3.97;;
43803;SDS011;29430;52.924;-2.388;2023-07-20T23:03:42;9.68;;;6.18;;
43803;SDS011;29430;52.924;-2.388;2023-07-20T23:08:34;6.93;;;3.65;;
43803;SDS011;29430;52.924;-2.388;2023-07-20T23:13:27;6.70;;;3.65;;
43803;SDS011;29430;52.924;-2.388;2023-07-20T23:18:20;7.28;;;4.00;;
43803;SDS011;29430;52.924;-2.388;2023-07-20T23:23:15;5.80;;;3.90;;
43803;SDS011;29430;52.924;-2.388;2023-07-20T23:28:07;9.20;;;4.55;;
43803;SDS011;29430;52.924;-2.388;2023-07-20T23:32:59;6.15;;;4.03;;
43803;SDS011;29430;52.924;-2.388;2023-07-20T23:37:50;6.50;;;3.90;;
43803;SDS011;29430;52.924;-2.388;2023-07-20T23:42:43;5.47;;;3.80;;
43803;SDS011;29430;52.924;-2.388;2023-07-20T23:47:36;5.80;;;3.78;;
43803;SDS011;29430;52.924;-2.388;2023-07-20T23:52:29;6.05;;;4.47;;
43803;SDS011;29430;52.924;-2.388;2023-07-20T23:57:26;8.00;;;4.53;;
